createdAt,value
2022-11-19T00:01:28.362Z,3.60
2022-11-19T00:03:55.603Z,3.00
2022-11-19T00:06:25.610Z,3.33
2022-11-19T00:08:53.312Z,3.20
2022-11-19T00:11:41.613Z,3.60
2022-11-19T00:14:10.215Z,4.00
2022-11-19T00:16:37.175Z,4.30
2022-11-19T00:19:04.528Z,3.67
2022-11-19T00:21:31.332Z,3.57
2022-11-19T00:23:58.536Z,3.60
2022-11-19T00:26:26.743Z,3.37
2022-11-19T00:28:54.397Z,3.77
2022-11-19T00:31:21.316Z,3.20
2022-11-19T00:33:54.286Z,3.40
2022-11-19T00:36:22.417Z,3.33
2022-11-19T00:38:49.621Z,3.90
2022-11-19T00:41:16.721Z,3.57
2022-11-19T00:43:50.201Z,3.50
2022-11-19T00:46:25.999Z,3.60
2022-11-19T00:48:54.977Z,3.70
2022-11-19T00:51:23.427Z,4.30
2022-11-19T00:53:51.163Z,4.03
2022-11-19T00:56:20.404Z,4.03
2022-11-19T00:58:48.467Z,4.13
2022-11-19T01:01:17.701Z,3.83
2022-11-19T01:03:48.003Z,3.67
2022-11-19T01:06:19.288Z,3.97
2022-11-19T01:08:48.056Z,4.37
2022-11-19T01:11:18.225Z,4.00
2022-11-19T01:13:45.216Z,4.00
2022-11-19T01:16:14.992Z,4.40
2022-11-19T01:18:42.859Z,4.20
2022-11-19T01:21:11.481Z,3.67
2022-11-19T01:23:40.363Z,3.60
2022-11-19T01:26:08.163Z,3.40
2022-11-19T01:28:35.883Z,4.63
2022-11-19T01:31:09.848Z,4.80
2022-11-19T01:33:37.973Z,4.23
2022-11-19T01:36:08.770Z,3.83
2022-11-19T01:38:35.744Z,4.00
2022-11-19T01:41:03.174Z,4.00
2022-11-19T01:43:48.093Z,5.10
2022-11-19T01:46:18.159Z,4.93
2022-11-19T01:49:08.459Z,4.97
2022-11-19T01:51:41.134Z,3.80
2022-11-19T01:54:20.179Z,3.67
2022-11-19T01:56:47.897Z,4.30
2022-11-19T01:59:18.056Z,4.10
2022-11-19T02:01:45.766Z,3.83
2022-11-19T02:04:15.318Z,4.13
2022-11-19T02:06:43.212Z,3.80
2022-11-19T02:09:10.163Z,4.10
2022-11-19T02:11:49.309Z,3.90
2022-11-19T02:14:37.810Z,3.87
2022-11-19T02:17:39.176Z,3.70
2022-11-19T02:20:33.349Z,4.03
2022-11-19T02:23:24.717Z,4.10
2022-11-19T02:26:26.959Z,4.40
2022-11-19T02:29:07.488Z,4.20
2022-11-19T02:32:02.418Z,5.33
2022-11-19T02:34:57.672Z,5.37
2022-11-19T02:38:14.403Z,6.60
2022-11-19T02:40:50.071Z,4.40
2022-11-19T02:43:28.103Z,4.43
2022-11-19T02:46:09.809Z,8.97
2022-11-19T02:48:41.394Z,5.50
2022-11-19T02:51:09.280Z,10.73
2022-11-19T02:53:36.234Z,8.27
2022-11-19T02:56:35.944Z,6.67
2022-11-19T02:59:22.231Z,5.10
2022-11-19T03:02:08.802Z,4.33
2022-11-19T03:04:35.858Z,3.43
2022-11-19T03:07:13.220Z,3.10
2022-11-19T03:09:44.640Z,3.53
2022-11-19T03:12:21.171Z,3.27
2022-11-19T03:15:10.738Z,3.13
2022-11-19T03:17:56.183Z,3.23
2022-11-19T03:20:30.082Z,3.10
2022-11-19T03:23:18.159Z,3.30
2022-11-19T03:25:49.161Z,3.87
2022-11-19T03:28:23.004Z,3.87
2022-11-19T03:30:51.042Z,3.50
2022-11-19T03:33:28.554Z,3.20
2022-11-19T03:36:05.369Z,3.10
2022-11-19T03:38:37.968Z,3.07
2022-11-19T03:41:07.200Z,3.53
2022-11-19T03:43:38.513Z,3.00
2022-11-19T03:46:09.154Z,3.00
2022-11-19T03:48:38.027Z,3.30
2022-11-19T03:51:17.860Z,3.30
2022-11-19T03:53:44.982Z,3.03
2022-11-19T03:56:16.601Z,3.13
2022-11-19T03:58:45.411Z,3.10
2022-11-19T04:01:12.595Z,3.33
2022-11-19T04:03:40.052Z,3.17
2022-11-19T04:06:07.135Z,2.90
2022-11-19T04:08:34.041Z,3.23
2022-11-19T04:13:26.901Z,2.83
2022-11-19T04:15:53.812Z,3.17
2022-11-19T04:18:20.798Z,2.83
2022-11-19T04:20:47.713Z,2.80
2022-11-19T04:23:14.690Z,2.73
2022-11-19T04:25:46.965Z,2.70
2022-11-19T04:28:13.931Z,2.70
2022-11-19T04:30:40.790Z,2.63
2022-11-19T04:33:08.017Z,2.30
2022-11-19T04:35:34.937Z,2.40
2022-11-19T04:38:01.900Z,2.10
2022-11-19T04:40:28.790Z,2.50
2022-11-19T04:42:55.631Z,2.30
2022-11-19T04:45:22.560Z,2.50
2022-11-19T04:47:49.476Z,2.50
2022-11-19T04:50:16.390Z,2.23
2022-11-19T04:52:43.441Z,2.13
2022-11-19T04:55:10.999Z,2.07
2022-11-19T04:57:37.988Z,2.20
2022-11-19T05:00:06.172Z,1.90
2022-11-19T05:02:33.328Z,2.27
2022-11-19T05:05:00.336Z,1.90
2022-11-19T05:07:27.360Z,1.60
2022-11-19T05:09:54.241Z,1.60
2022-11-19T05:12:21.325Z,1.90
2022-11-19T05:14:48.312Z,1.50
2022-11-19T05:17:15.301Z,1.80
2022-11-19T05:19:42.268Z,2.00
2022-11-19T05:22:09.194Z,3.37
2022-11-19T05:24:36.120Z,3.93
2022-11-19T05:27:03.551Z,3.43
2022-11-19T05:29:30.481Z,2.20
2022-11-19T05:31:57.424Z,1.97
2022-11-19T05:34:24.480Z,1.90
2022-11-19T05:36:51.433Z,1.90
2022-11-19T05:39:22.205Z,2.40
2022-11-19T05:41:49.851Z,1.87
2022-11-19T05:44:17.877Z,2.10
2022-11-19T05:46:44.791Z,2.43
2022-11-19T05:49:11.903Z,2.10
2022-11-19T05:51:38.921Z,2.00
2022-11-19T05:54:05.905Z,2.07
2022-11-19T05:56:33.117Z,2.10
2022-11-19T05:59:00.022Z,2.10
2022-11-19T06:01:28.893Z,1.90
2022-11-19T06:03:55.998Z,2.30
2022-11-19T06:06:23.437Z,2.30
2022-11-19T06:08:50.477Z,2.00
2022-11-19T06:11:36.313Z,2.13
2022-11-19T06:14:03.602Z,2.40
2022-11-19T06:16:30.408Z,2.20
2022-11-19T06:18:57.404Z,2.30
2022-11-19T06:21:24.400Z,2.10
2022-11-19T06:23:51.385Z,2.33
2022-11-19T06:26:26.406Z,2.40
2022-11-19T06:28:53.853Z,2.40
2022-11-19T06:31:21.740Z,2.37
2022-11-19T06:33:49.648Z,2.20
2022-11-19T06:36:16.754Z,2.30
2022-11-19T06:38:43.709Z,2.30
2022-11-19T06:41:10.619Z,2.60
2022-11-19T06:43:37.676Z,3.07
2022-11-19T06:46:04.791Z,2.97
2022-11-19T06:48:31.683Z,2.37
2022-11-19T06:50:59.213Z,2.47
2022-11-19T06:53:26.210Z,2.40
2022-11-19T06:55:58.099Z,2.50
2022-11-19T06:58:25.283Z,2.20
2022-11-19T07:00:52.279Z,2.00
2022-11-19T07:03:19.554Z,2.47
2022-11-19T07:05:50.155Z,2.60
2022-11-19T07:08:17.536Z,2.37
2022-11-19T07:10:44.393Z,2.40
2022-11-19T07:13:11.476Z,2.47
2022-11-19T07:15:38.525Z,2.47
2022-11-19T07:18:05.838Z,2.70
2022-11-19T07:20:32.700Z,3.20
2022-11-19T07:22:59.687Z,2.90
2022-11-19T07:25:27.608Z,3.23
2022-11-19T07:27:54.594Z,3.10
2022-11-19T07:30:21.641Z,2.40
2022-11-19T07:32:48.662Z,2.43
2022-11-19T07:35:15.606Z,2.33
2022-11-19T07:37:42.482Z,2.70
2022-11-19T07:40:11.117Z,3.10
2022-11-19T07:42:49.958Z,3.20
2022-11-19T07:45:19.961Z,5.67
2022-11-19T07:47:47.096Z,8.30
2022-11-19T07:50:14.063Z,6.50
2022-11-19T07:52:40.998Z,4.83
2022-11-19T07:55:08.371Z,4.73
2022-11-19T07:57:35.638Z,3.80
2022-11-19T08:00:03.755Z,3.93
2022-11-19T08:02:30.676Z,3.67
2022-11-19T08:04:57.720Z,2.97
2022-11-19T08:07:25.741Z,2.27
2022-11-19T08:09:52.905Z,2.30
2022-11-19T08:12:19.822Z,2.17
2022-11-19T08:14:46.770Z,2.43
2022-11-19T08:17:32.097Z,2.50
2022-11-19T08:19:59.099Z,2.40
2022-11-19T08:22:25.881Z,2.70
2022-11-19T08:24:52.835Z,2.90
2022-11-19T08:27:19.958Z,2.70
2022-11-19T08:29:46.950Z,2.43
2022-11-19T08:32:13.805Z,3.30
2022-11-19T08:34:40.787Z,2.97
2022-11-19T08:37:07.814Z,2.60
2022-11-19T08:39:34.725Z,3.10
2022-11-19T08:42:20.046Z,2.80
2022-11-19T08:44:46.994Z,2.70
2022-11-19T08:47:14.338Z,2.80
2022-11-19T08:49:41.228Z,2.63
2022-11-19T08:52:08.261Z,2.50
2022-11-19T08:54:35.272Z,3.00
2022-11-19T08:57:02.318Z,2.70
2022-11-19T08:59:29.250Z,3.40
2022-11-19T09:01:56.100Z,3.40
2022-11-19T09:04:23.222Z,3.00
2022-11-19T09:06:50.270Z,2.80
2022-11-19T09:09:17.876Z,3.47
2022-11-19T09:11:47.833Z,3.40
2022-11-19T09:14:14.946Z,1.70
2022-11-19T09:16:42.313Z,2.43
2022-11-19T09:19:09.497Z,1.80
2022-11-19T09:21:36.342Z,1.60
2022-11-19T09:24:03.308Z,1.60
2022-11-19T09:26:30.152Z,1.50
2022-11-19T09:28:57.122Z,1.30
2022-11-19T09:31:24.124Z,1.40
2022-11-19T09:33:52.876Z,1.43
2022-11-19T09:36:20.475Z,1.27
2022-11-19T09:38:48.161Z,0.90
2022-11-19T09:41:18.200Z,1.10
2022-11-19T09:43:57.091Z,1.30
2022-11-19T09:46:23.891Z,1.00
2022-11-19T09:48:54.931Z,1.10
2022-11-19T09:51:29.865Z,1.87
2022-11-19T09:54:02.736Z,7.87
2022-11-19T09:56:38.739Z,5.10
2022-11-19T09:59:33.118Z,2.00
2022-11-19T10:02:00.026Z,1.37
2022-11-19T10:04:33.365Z,1.03
2022-11-19T10:07:10.272Z,1.00
2022-11-19T10:10:03.682Z,1.00
2022-11-19T10:12:44.260Z,0.80
2022-11-19T10:15:26.332Z,0.57
2022-11-19T10:18:11.131Z,1.10
2022-11-19T10:20:51.972Z,0.87
2022-11-19T10:23:40.165Z,0.87
2022-11-19T10:26:13.228Z,1.00
2022-11-19T10:28:53.943Z,1.10
2022-11-19T10:31:30.712Z,1.23
2022-11-19T10:34:14.908Z,1.00
2022-11-19T10:37:02.153Z,0.90
2022-11-19T10:39:42.020Z,1.03
2022-11-19T10:42:38.352Z,0.73
2022-11-19T10:45:17.402Z,1.10
2022-11-19T10:48:09.552Z,0.90
2022-11-19T10:50:36.927Z,0.87
2022-11-19T10:53:29.500Z,1.03
2022-11-19T10:56:19.084Z,1.10
2022-11-19T10:58:58.018Z,1.27
2022-11-19T11:01:29.560Z,1.57
2022-11-19T11:04:19.788Z,0.70
2022-11-19T11:06:52.895Z,0.90
2022-11-19T11:09:36.417Z,1.10
2022-11-19T11:12:40.278Z,0.80
2022-11-19T11:15:21.638Z,0.70
2022-11-19T11:18:00.723Z,0.57
2022-11-19T11:20:29.634Z,0.87
2022-11-19T11:23:25.084Z,0.73
2022-11-19T11:26:15.315Z,0.67
2022-11-19T11:29:03.677Z,0.87
2022-11-19T11:31:58.625Z,0.70
2022-11-19T11:34:28.970Z,0.57
2022-11-19T11:36:57.328Z,0.50
2022-11-19T11:39:44.508Z,0.73
2022-11-19T11:42:18.552Z,0.60
2022-11-19T11:44:52.351Z,0.40
2022-11-19T11:47:39.784Z,0.20
2022-11-19T11:50:22.267Z,0.43
2022-11-19T11:52:51.960Z,0.47
2022-11-19T11:55:25.046Z,0.60
2022-11-19T11:57:57.471Z,1.00
2022-11-19T12:00:45.581Z,0.60
2022-11-19T12:03:13.969Z,0.47
2022-11-19T12:05:52.889Z,0.50
2022-11-19T12:08:38.498Z,1.80
2022-11-19T12:11:26.156Z,3.30
2022-11-19T12:14:12.496Z,2.60
2022-11-19T12:17:13.410Z,0.83
2022-11-19T12:19:49.232Z,0.93
2022-11-19T12:22:54.214Z,1.60
2022-11-19T12:25:41.841Z,0.60
2022-11-19T12:28:24.523Z,0.50
2022-11-19T12:30:54.161Z,1.60
2022-11-19T12:33:25.507Z,1.03
2022-11-19T12:35:57.113Z,1.07
2022-11-19T12:38:45.592Z,1.27
2022-11-19T12:41:17.628Z,0.63
2022-11-19T12:43:47.424Z,1.20
2022-11-19T12:46:56.021Z,0.30
2022-11-19T12:49:41.599Z,0.50
2022-11-19T12:52:46.216Z,0.40
2022-11-19T12:55:23.184Z,0.43
2022-11-19T12:58:17.644Z,0.80
2022-11-19T13:00:53.298Z,0.37
2022-11-19T13:03:50.686Z,1.00
2022-11-19T13:06:41.043Z,0.50
2022-11-19T13:09:16.569Z,0.83
2022-11-19T13:11:49.145Z,0.90
2022-11-19T13:14:33.726Z,1.70
2022-11-19T13:17:03.338Z,0.80
2022-11-19T13:19:33.887Z,0.60
2022-11-19T13:22:05.650Z,0.90
2022-11-19T13:24:36.494Z,0.90
2022-11-19T13:27:06.321Z,0.60
2022-11-19T13:30:03.835Z,0.40
2022-11-19T13:32:41.447Z,0.37
2022-11-19T13:35:29.115Z,0.40
2022-11-19T13:38:15.645Z,0.20
2022-11-19T13:41:10.582Z,0.40
2022-11-19T13:43:56.079Z,0.30
2022-11-19T13:46:33.649Z,0.40
2022-11-19T13:49:33.627Z,0.50
2022-11-19T13:52:11.301Z,0.17
2022-11-19T13:54:44.028Z,0.57
2022-11-19T13:57:33.764Z,0.30
2022-11-19T14:00:25.436Z,0.50
2022-11-19T14:03:32.677Z,0.70
2022-11-19T14:06:06.810Z,0.30
2022-11-19T14:08:40.104Z,0.30
2022-11-19T14:11:07.131Z,0.50
2022-11-19T14:13:56.067Z,0.40
2022-11-19T14:17:14.533Z,0.80
2022-11-19T14:20:14.501Z,0.60
2022-11-19T14:23:14.953Z,0.60
2022-11-19T14:26:05.908Z,0.83
2022-11-19T14:28:52.202Z,0.80
2022-11-19T14:31:20.631Z,1.13
2022-11-19T14:33:47.681Z,1.10
2022-11-19T14:36:20.935Z,1.40
2022-11-19T14:39:02.819Z,1.07
2022-11-19T14:41:35.137Z,0.97
2022-11-19T14:44:18.254Z,0.97
2022-11-19T14:46:47.787Z,1.30
2022-11-19T14:49:35.649Z,0.90
2022-11-19T14:52:03.509Z,1.03
2022-11-19T14:54:39.903Z,0.83
2022-11-19T14:57:15.582Z,1.30
2022-11-19T14:59:48.601Z,1.70
2022-11-19T15:02:26.029Z,1.63
2022-11-19T15:05:16.982Z,1.10
2022-11-19T15:08:05.988Z,1.60
2022-11-19T15:10:46.253Z,1.20
2022-11-19T15:13:16.554Z,1.27
2022-11-19T15:15:46.084Z,1.40
2022-11-19T15:18:37.395Z,1.30
2022-11-19T15:21:21.417Z,1.00
2022-11-19T15:24:02.801Z,1.20
2022-11-19T15:26:56.784Z,1.30
2022-11-19T15:29:57.047Z,1.50
2022-11-19T15:32:56.268Z,1.10
2022-11-19T15:36:00.920Z,1.57
2022-11-19T15:38:43.805Z,1.20
2022-11-19T15:41:15.919Z,1.13
2022-11-19T15:43:48.350Z,1.27
2022-11-19T15:46:46.082Z,1.17
2022-11-19T15:49:21.412Z,1.20
2022-11-19T15:52:16.147Z,1.50
2022-11-19T15:54:45.008Z,1.40
2022-11-19T15:57:25.178Z,1.30
2022-11-19T15:59:59.868Z,1.47
2022-11-19T16:02:40.494Z,1.60
2022-11-19T16:05:16.713Z,1.60
2022-11-19T16:07:46.903Z,1.50
2022-11-19T16:10:21.935Z,2.00
2022-11-19T16:13:15.929Z,1.67
2022-11-19T16:16:14.060Z,2.00
2022-11-19T16:18:48.763Z,1.50
2022-11-19T16:21:38.834Z,1.43
2022-11-19T16:24:30.445Z,1.40
2022-11-19T16:26:59.584Z,1.17
2022-11-19T16:29:27.110Z,1.60
2022-11-19T16:31:57.727Z,1.60
2022-11-19T16:34:26.798Z,1.70
2022-11-19T16:36:54.606Z,3.13
2022-11-19T16:39:28.381Z,3.30
2022-11-19T16:42:17.362Z,3.20
2022-11-19T16:44:54.493Z,2.00
2022-11-19T16:47:28.416Z,1.40
2022-11-19T16:49:59.929Z,1.50
2022-11-19T16:52:33.072Z,1.80
2022-11-19T16:55:01.327Z,1.70
2022-11-19T16:57:29.601Z,1.70
2022-11-19T17:00:02.536Z,1.70
2022-11-19T17:02:35.866Z,3.00
2022-11-19T17:05:09.978Z,1.77
2022-11-19T17:07:37.010Z,1.80
2022-11-19T17:10:13.159Z,1.67
2022-11-19T17:12:54.512Z,3.50
2022-11-19T17:15:43.758Z,6.70
2022-11-19T17:18:16.627Z,6.13
2022-11-19T17:20:49.578Z,6.07
2022-11-19T17:23:16.545Z,6.17
2022-11-19T17:26:07.496Z,8.57
2022-11-19T17:28:46.502Z,6.37
2022-11-19T17:31:26.184Z,6.40
2022-11-19T17:33:57.386Z,6.63
2022-11-19T17:36:27.986Z,7.43
2022-11-19T17:38:55.214Z,5.53
2022-11-19T17:41:44.144Z,15.90
2022-11-19T17:44:31.902Z,4.13
2022-11-19T17:46:59.514Z,13.37
2022-11-19T17:49:26.521Z,9.63
2022-11-19T17:51:55.306Z,7.30
2022-11-19T17:54:22.802Z,3.93
2022-11-19T17:56:49.941Z,3.33
2022-11-19T17:59:16.941Z,3.40
2022-11-19T18:01:43.882Z,6.83
2022-11-19T18:04:14.163Z,5.80
2022-11-19T18:06:41.848Z,3.60
2022-11-19T18:09:09.354Z,4.30
2022-11-19T18:11:39.135Z,4.63
2022-11-19T18:14:10.035Z,6.53
2022-11-19T18:16:40.230Z,5.20
2022-11-19T18:19:12.077Z,5.20
2022-11-19T18:21:41.283Z,4.93
2022-11-19T18:24:11.302Z,5.23
2022-11-19T18:26:38.599Z,5.43
2022-11-19T18:29:05.462Z,9.30
2022-11-19T18:31:32.582Z,11.00
2022-11-19T18:33:59.597Z,8.40
2022-11-19T18:36:26.570Z,10.40
2022-11-19T18:38:55.649Z,8.80
2022-11-19T18:41:22.684Z,5.70
2022-11-19T18:44:07.909Z,4.40
2022-11-19T18:46:34.974Z,5.80
2022-11-19T18:49:01.930Z,7.40
2022-11-19T18:51:31.200Z,4.57
2022-11-19T18:53:58.461Z,5.10
2022-11-19T18:56:25.477Z,3.70
2022-11-19T18:58:52.481Z,4.17
2022-11-19T19:01:20.013Z,5.90
2022-11-19T19:03:47.453Z,4.33
2022-11-19T19:06:14.771Z,4.17
2022-11-19T19:08:41.765Z,3.60
2022-11-19T19:11:35.273Z,3.40
2022-11-19T19:14:03.151Z,3.47
2022-11-19T19:16:30.562Z,3.40
2022-11-19T19:18:57.604Z,3.33
2022-11-19T19:21:24.505Z,3.50
2022-11-19T19:23:51.436Z,3.50
2022-11-19T19:26:19.101Z,3.80
2022-11-19T19:28:54.635Z,4.50
2022-11-19T19:31:23.091Z,16.93
2022-11-19T19:33:50.799Z,12.77
2022-11-19T19:36:19.270Z,7.83
2022-11-19T19:38:46.470Z,6.60
2022-11-19T19:41:15.906Z,4.47
2022-11-19T19:43:42.863Z,4.20
2022-11-19T19:46:16.332Z,4.30
2022-11-19T19:48:45.118Z,5.37
2022-11-19T19:51:13.458Z,6.50
2022-11-19T19:53:41.876Z,9.43
2022-11-19T19:56:16.739Z,8.90
2022-11-19T19:58:45.182Z,7.90
2022-11-19T20:01:15.367Z,5.37
2022-11-19T20:03:43.781Z,4.23
2022-11-19T20:06:12.710Z,4.30
2022-11-19T20:08:40.323Z,4.20
2022-11-19T20:11:10.550Z,4.03
2022-11-19T20:13:39.716Z,4.17
2022-11-19T20:16:17.982Z,4.57
2022-11-19T20:18:47.059Z,4.73
2022-11-19T20:21:20.094Z,5.20
2022-11-19T20:23:47.573Z,5.03
2022-11-19T20:26:17.041Z,4.90
2022-11-19T20:28:44.787Z,4.37
2022-11-19T20:31:20.139Z,4.40
2022-11-19T20:33:52.148Z,4.33
2022-11-19T20:36:19.090Z,5.10
2022-11-19T20:38:46.473Z,9.40
2022-11-19T20:41:33.335Z,9.80
2022-11-19T20:44:20.413Z,9.80
2022-11-19T20:47:00.672Z,8.17
2022-11-19T20:49:35.926Z,5.03
2022-11-19T20:52:03.756Z,5.93
2022-11-19T20:54:31.090Z,8.37
2022-11-19T20:56:58.350Z,9.37
2022-11-19T20:59:26.867Z,7.67
2022-11-19T21:01:55.157Z,8.33
2022-11-19T21:04:23.566Z,6.90
2022-11-19T21:06:50.705Z,7.60
2022-11-19T21:09:19.902Z,7.63
2022-11-19T21:11:47.776Z,14.57
2022-11-19T21:14:14.689Z,5.47
2022-11-19T21:16:41.536Z,5.80
2022-11-19T21:19:10.328Z,5.47
2022-11-19T21:21:37.690Z,5.20
2022-11-19T21:24:05.007Z,5.00
2022-11-19T21:26:31.933Z,5.63
2022-11-19T21:28:59.813Z,5.67
2022-11-19T21:31:38.450Z,4.80
2022-11-19T21:34:14.459Z,4.97
2022-11-19T21:36:42.882Z,5.33
2022-11-19T21:39:10.864Z,5.20
2022-11-19T21:41:38.426Z,5.63
2022-11-19T21:44:06.056Z,6.30
2022-11-19T21:46:33.507Z,5.23
2022-11-19T21:49:00.586Z,7.37
2022-11-19T21:51:27.524Z,5.20
2022-11-19T21:53:58.754Z,5.27
2022-11-19T21:56:33.823Z,4.73
2022-11-19T21:59:04.120Z,4.10
2022-11-19T22:01:30.906Z,4.13
2022-11-19T22:03:57.863Z,4.07
2022-11-19T22:06:24.837Z,4.30
2022-11-19T22:08:52.028Z,3.80
2022-11-19T22:11:31.382Z,4.27
2022-11-19T22:14:07.078Z,4.83
2022-11-19T22:16:37.075Z,4.33
2022-11-19T22:19:08.215Z,4.80
2022-11-19T22:21:35.642Z,5.43
2022-11-19T22:24:02.700Z,4.60
2022-11-19T22:26:29.946Z,4.70
2022-11-19T22:28:57.238Z,3.97
2022-11-19T22:31:25.158Z,4.27
2022-11-19T22:33:52.386Z,5.27
2022-11-19T22:36:20.395Z,4.50
2022-11-19T22:38:47.417Z,4.43
2022-11-19T22:41:19.461Z,4.83
2022-11-19T22:43:46.599Z,4.90
2022-11-19T22:46:14.798Z,4.63
2022-11-19T22:48:41.957Z,4.50
2022-11-19T22:51:23.946Z,4.90
2022-11-19T22:53:52.590Z,4.63
2022-11-19T22:56:22.231Z,4.40
2022-11-19T22:58:49.947Z,4.20
2022-11-19T23:01:24.351Z,4.10
2022-11-19T23:03:51.798Z,3.90
2022-11-19T23:06:19.291Z,3.90
2022-11-19T23:08:46.433Z,3.80
2022-11-19T23:11:14.995Z,3.90
2022-11-19T23:13:44.227Z,4.40
2022-11-19T23:16:11.216Z,4.40
2022-11-19T23:18:49.309Z,3.90
2022-11-19T23:21:21.919Z,3.63
2022-11-19T23:23:48.907Z,3.40
2022-11-19T23:26:18.215Z,3.70
2022-11-19T23:28:45.526Z,3.50
2022-11-19T23:31:15.444Z,3.47
2022-11-19T23:33:42.661Z,3.10
2022-11-19T23:36:21.304Z,3.27
2022-11-19T23:38:48.415Z,3.57
2022-11-19T23:41:17.319Z,3.63
2022-11-19T23:43:44.644Z,3.73
2022-11-19T23:46:11.594Z,3.67
2022-11-19T23:48:40.419Z,3.50
2022-11-19T23:51:20.162Z,3.70
2022-11-19T23:53:47.844Z,3.53
2022-11-19T23:56:16.029Z,3.47
2022-11-19T23:58:43.041Z,3.57
